Terminal Aerodrome Forecast
Issued by NWS Central Illinois

Home | Current Version | Previous Version | Text Only | Print | Product List | Glossary On
Versions: 1 2 3 4 5 6 7 8 9 10 11 12 13 14 15 16 17 18 19 20 21
000
FTUS43 KILX 291129
TAFPIA
TAF
KPIA 291129Z 2912/3012 33007KT P6SM SCT009 BKN250
     FM291700 33010G18KT P6SM SCT250
     FM300000 28004KT P6SM SKC=

USA.gov is the U.S. government's official web portal to all federal, state and local government web resources and services.